Time;durP1;ratioP1;P1;durP2;ratioP2;P2;SDS_P1;SDS_P2;PMS_P1;PMS_P2;Temp;Humidity;BMP_temperature;BMP_pressure;BME280_temperature;BME280_humidity;BME280_pressure;Samples;Min_cycle;Max_cycle;Signal;HPM_P1;HPM_P2
2023/05/10 00:02:09;;;;;;;10.43;7.45;;;13.00;99.90;;;;;;4963774;28;20035;-72
2023/05/10 00:04:35;;;;;;;8.65;7.28;;;12.80;99.90;;;;;;4963693;28;20468;-70
2023/05/10 00:07:01;;;;;;;8.93;7.60;;;12.80;99.90;;;;;;4966529;28;20039;-70
2023/05/10 00:09:26;;;;;;;7.47;6.63;;;12.80;99.90;;;;;;4949208;28;20050;-72
2023/05/10 00:11:52;;;;;;;9.63;7.50;;;12.80;99.90;;;;;;4964782;28;20050;-71
2023/05/10 00:14:18;;;;;;;8.23;6.93;;;12.70;99.90;;;;;;4963602;28;20522;-71
2023/05/10 00:16:44;;;;;;;8.77;7.25;;;12.80;99.90;;;;;;4963699;28;20073;-71
2023/05/10 00:19:10;;;;;;;8.95;7.10;;;12.70;99.90;;;;;;4963323;28;20118;-71
2023/05/10 00:21:36;;;;;;;8.52;6.82;;;12.70;99.90;;;;;;4963368;28;20040;-70
2023/05/10 00:24:01;;;;;;;7.07;6.30;;;12.90;99.90;;;;;;4947085;28;20058;-71
2023/05/10 00:26:27;;;;;;;7.45;6.22;;;12.70;99.90;;;;;;4948895;28;20059;-70
2023/05/10 00:28:53;;;;;;;6.90;5.95;;;12.60;99.90;;;;;;4966148;28;20046;-71
2023/05/10 00:31:18;;;;;;;6.93;6.07;;;12.60;99.90;;;;;;4946295;28;20050;-71
2023/05/10 00:33:44;;;;;;;7.30;5.75;;;12.70;99.90;;;;;;4945699;29;20047;-72
2023/05/10 00:36:10;;;;;;;6.70;6.00;;;12.70;99.90;;;;;;4946529;28;20055;-72
2023/05/10 00:38:35;;;;;;;7.30;6.13;;;12.50;99.90;;;;;;4965965;28;20474;-71
2023/05/10 00:41:01;;;;;;;8.95;6.70;;;12.50;99.90;;;;;;4948708;28;20050;-72
2023/05/10 00:43:27;;;;;;;8.57;7.40;;;12.60;99.90;;;;;;4963835;28;20054;-73
2023/05/10 00:45:53;;;;;;;8.13;7.05;;;12.50;99.90;;;;;;4962777;28;20490;-70
2023/05/10 00:48:19;;;;;;;10.05;8.05;;;12.50;99.90;;;;;;4946019;28;20055;-70
2023/05/10 00:50:45;;;;;;;9.73;8.20;;;12.50;99.90;;;;;;4965925;28;20043;-72
2023/05/10 00:53:11;;;;;;;9.68;8.02;;;12.50;99.90;;;;;;4966051;28;20478;-74
2023/05/10 00:55:37;;;;;;;10.20;8.23;;;12.50;99.90;;;;;;4963907;28;20669;-71
2023/05/10 00:58:03;;;;;;;11.07;8.57;;;12.50;99.90;;;;;;4962468;28;20126;-71
2023/05/10 01:00:29;;;;;;;11.45;8.77;;;12.70;99.90;;;;;;4945406;29;20097;-72
2023/05/10 01:02:55;;;;;;;11.85;9.93;;;12.40;99.90;;;;;;4962587;28;20051;-72
2023/05/10 01:05:21;;;;;;;13.27;9.98;;;12.40;99.90;;;;;;4962949;28;20044;-71
2023/05/10 01:07:46;;;;;;;11.60;9.88;;;12.40;99.90;;;;;;4946075;28;20078;-71
2023/05/10 01:10:12;;;;;;;13.70;11.18;;;12.40;99.90;;;;;;4965579;28;20047;-71
2023/05/10 01:12:40;;;;;;;15.90;10.80;;;12.30;99.90;;;;;;4965612;28;20061;-71
2023/05/10 01:15:11;;;;;;;13.52;11.02;;;12.40;99.90;;;;;;4954650;28;20051;-71
2023/05/10 01:17:39;;;;;;;13.00;11.05;;;12.40;99.90;;;;;;4945111;29;20858;-70
2023/05/10 01:20:07;;;;;;;16.13;11.38;;;12.30;99.90;;;;;;4964806;28;20130;-71
2023/05/10 01:22:50;;;;;;;12.60;10.90;;;12.30;99.90;;;;;;4963694;28;20103;-71
2023/05/10 01:25:27;;;;;;;13.20;10.25;;;12.30;99.90;;;;;;4944778;28;20515;-71
2023/05/10 01:28:07;;;;;;;13.68;10.07;;;12.30;99.90;;;;;;4961733;28;20490;-71
2023/05/10 01:30:54;;;;;;;10.60;9.00;;;12.30;99.90;;;;;;4955837;28;20102;-71
2023/05/10 01:33:47;;;;;;;12.73;10.98;;;12.30;99.90;;;;;;4947473;28;20059;-71
2023/05/10 01:36:32;;;;;;;11.93;9.65;;;12.30;99.90;;;;;;4963869;28;20512;-72
2023/05/10 01:39:20;;;;;;;14.30;10.52;;;12.30;99.90;;;;;;4944674;29;20055;-71
2023/05/10 01:42:05;;;;;;;12.45;9.75;;;12.30;99.90;;;;;;4938513;29;20127;-71
2023/05/10 01:44:40;;;;;;;11.80;9.27;;;12.30;99.90;;;;;;4943363;29;20056;-72
2023/05/10 01:47:16;;;;;;;12.57;9.48;;;12.30;99.90;;;;;;4936963;29;20387;-71
2023/05/10 01:49:55;;;;;;;11.57;8.95;;;12.30;99.90;;;;;;4935190;29;20578;-73
2023/05/10 01:52:32;;;;;;;11.88;8.93;;;12.30;99.90;;;;;;4933562;29;20050;-70
2023/05/10 01:55:04;;;;;;;12.00;9.57;;;12.30;99.90;;;;;;4945854;29;20051;-71
2023/05/10 01:57:34;;;;;;;12.15;9.63;;;12.30;99.90;;;;;;4944747;29;20169;-71
2023/05/10 02:00:03;;;;;;;10.95;9.27;;;12.30;99.90;;;;;;4942476;29;20139;-70
2023/05/10 02:02:33;;;;;;;12.55;9.70;;;12.30;99.90;;;;;;4933481;29;20408;-71
2023/05/10 02:04:59;;;;;;;12.80;9.52;;;12.30;99.90;;;;;;4935050;29;20051;-71
2023/05/10 02:07:27;;;;;;;12.38;9.45;;;12.30;99.90;;;;;;4932963;29;20043;-70
2023/05/10 02:09:54;;;;;;;12.13;9.60;;;12.30;99.90;;;;;;4944202;29;20047;-70
2023/05/10 02:12:22;;;;;;;12.48;9.63;;;12.30;99.90;;;;;;4945214;29;20471;-71
2023/05/10 02:14:50;;;;;;;15.18;10.70;;;12.30;99.90;;;;;;4944426;29;20059;-70
2023/05/10 02:17:17;;;;;;;14.75;10.02;;;12.30;99.90;;;;;;4942226;29;20067;-71
2023/05/10 02:19:45;;;;;;;14.13;10.07;;;12.20;99.90;;;;;;4941470;29;20087;-71
2023/05/10 02:22:11;;;;;;;15.43;10.77;;;12.20;99.90;;;;;;4944771;29;20142;-71
2023/05/10 02:24:38;;;;;;;16.77;11.50;;;12.40;99.90;;;;;;4944975;29;20079;-71
2023/05/10 02:27:05;;;;;;;18.08;11.60;;;12.30;99.90;;;;;;4944196;29;20402;-71
2023/05/10 02:29:32;;;;;;;17.58;12.13;;;12.30;99.90;;;;;;4932678;29;20118;-71
2023/05/10 02:31:58;;;;;;;19.15;13.48;;;12.30;99.90;;;;;;4942176;29;20050;-70
2023/05/10 02:34:26;;;;;;;23.08;13.70;;;12.20;99.90;;;;;;4944817;29;20035;-71
2023/05/10 02:36:54;;;;;;;19.27;13.50;;;12.20;99.90;;;;;;4935784;29;20051;-70
2023/05/10 02:39:20;;;;;;;21.75;13.90;;;12.20;99.90;;;;;;4933847;29;20151;-71
2023/05/10 02:41:48;;;;;;;21.65;13.63;;;12.30;99.90;;;;;;4942080;29;20043;-70
2023/05/10 02:44:17;;;;;;;21.13;14.30;;;12.20;99.90;;;;;;4949851;28;20063;-70
2023/05/10 02:46:43;;;;;;;25.63;15.57;;;12.20;99.90;;;;;;4964194;28;20046;-70
2023/05/10 02:49:09;;;;;;;26.33;15.75;;;12.20;99.90;;;;;;4964192;28;20490;-70
2023/05/10 02:51:37;;;;;;;27.80;16.40;;;12.30;99.90;;;;;;4928663;28;20544;-72
2023/05/10 02:54:17;;;;;;;27.42;16.98;;;12.40;99.90;;;;;;4960667;28;20114;-71
2023/05/10 02:56:50;;;;;;;25.75;16.67;;;12.20;99.90;;;;;;4963284;28;20407;-70
2023/05/10 02:59:16;;;;;;;26.63;17.35;;;12.20;99.90;;;;;;4946492;28;20105;-70
2023/05/10 03:01:41;;;;;;;30.40;18.27;;;12.50;99.90;;;;;;4961823;28;20043;-71
2023/05/10 03:04:07;;;;;;;32.95;18.67;;;12.20;99.90;;;;;;4960789;28;20446;-70
2023/05/10 03:06:33;;;;;;;35.80;18.63;;;12.30;99.90;;;;;;4960600;28;20388;-70
2023/05/10 03:08:59;;;;;;;32.28;18.13;;;12.20;99.90;;;;;;4943273;28;20109;-71
2023/05/10 03:11:53;;;;;;;33.53;18.88;;;12.20;99.90;;;;;;4960764;28;20066;-71
2023/05/10 03:14:22;;;;;;;35.08;18.90;;;12.20;99.90;;;;;;4936665;29;20114;-71
2023/05/10 03:16:59;;;;;;;35.13;18.52;;;12.20;99.90;;;;;;4943696;28;20442;-70
2023/05/10 03:19:35;;;;;;;35.78;18.88;;;12.20;99.90;;;;;;4946204;28;20486;-70
2023/05/10 03:22:06;;;;;;;35.70;17.98;;;12.20;99.90;;;;;;4944633;28;20114;-71
2023/05/10 03:24:34;;;;;;;34.33;18.23;;;12.30;99.90;;;;;;4960513;28;20054;-71
2023/05/10 03:27:02;;;;;;;36.55;18.90;;;12.20;99.90;;;;;;4943706;28;20051;-71
2023/05/10 03:29:29;;;;;;;33.70;17.42;;;12.20;99.90;;;;;;4963695;28;20042;-70
2023/05/10 03:31:55;;;;;;;34.05;18.50;;;12.30;99.90;;;;;;4947606;28;20078;-70
2023/05/10 03:34:24;;;;;;;30.25;18.10;;;12.50;99.90;;;;;;4947333;28;20078;-70
2023/05/10 03:36:50;;;;;;;29.80;16.95;;;12.20;99.90;;;;;;4964362;28;20491;-70
2023/05/10 03:39:15;;;;;;;28.85;16.80;;;12.20;99.90;;;;;;4948041;28;20051;-71
2023/05/10 03:41:41;;;;;;;28.40;16.83;;;12.20;99.90;;;;;;4967112;28;20035;-71
2023/05/10 03:44:06;;;;;;;22.73;14.90;;;12.20;99.90;;;;;;4966959;28;20054;-70
2023/05/10 03:46:32;;;;;;;26.30;17.20;;;12.20;99.90;;;;;;4964312;28;20356;-70
2023/05/10 03:48:58;;;;;;;25.92;16.45;;;12.10;99.90;;;;;;4964047;28;20055;-71
2023/05/10 03:51:27;;;;;;;29.65;16.95;;;12.20;99.90;;;;;;4947410;28;20043;-70
2023/05/10 03:53:53;;;;;;;32.53;16.90;;;12.30;99.90;;;;;;4967007;28;20596;-70
2023/05/10 03:56:20;;;;;;;29.65;16.20;;;12.50;99.90;;;;;;4949901;28;20054;-71
2023/05/10 03:58:46;;;;;;;25.48;15.00;;;12.10;99.90;;;;;;4964023;28;20118;-70
2023/05/10 04:01:12;;;;;;;24.77;14.82;;;12.20;99.90;;;;;;4946100;29;20183;-71
2023/05/10 04:03:38;;;;;;;23.00;13.75;;;12.20;99.90;;;;;;4964410;28;20047;-71
2023/05/10 04:06:04;;;;;;;25.33;15.02;;;12.20;99.90;;;;;;4966852;28;20046;-69
2023/05/10 04:08:30;;;;;;;21.30;13.73;;;12.10;99.90;;;;;;4949507;28;20050;-71
2023/05/10 04:11:08;;;;;;;24.40;14.57;;;12.20;99.90;;;;;;4930479;28;20055;-71
2023/05/10 04:13:34;;;;;;;22.42;14.68;;;12.10;99.90;;;;;;4963835;28;20403;-70
2023/05/10 04:16:00;;;;;;;21.95;13.85;;;12.10;99.90;;;;;;4965607;28;20052;-71
2023/05/10 04:18:26;;;;;;;21.85;13.10;;;12.10;99.90;;;;;;4948985;28;20049;-70
2023/05/10 04:20:51;;;;;;;17.80;12.13;;;12.40;99.90;;;;;;4948532;28;20049;-71
2023/05/10 04:23:17;;;;;;;17.10;11.80;;;12.10;99.90;;;;;;4946164;29;20047;-69
2023/05/10 04:25:43;;;;;;;18.30;12.20;;;12.20;99.90;;;;;;4963241;28;20047;-72
2023/05/10 04:28:09;;;;;;;17.45;12.63;;;12.10;99.90;;;;;;4965267;28;20051;-70
2023/05/10 04:30:34;;;;;;;19.42;13.05;;;12.20;99.90;;;;;;4966297;28;20154;-71
2023/05/10 04:33:01;;;;;;;15.70;11.23;;;12.10;99.90;;;;;;4966067;28;20053;-69
2023/05/10 04:35:28;;;;;;;14.85;10.15;;;12.20;99.90;;;;;;4945832;29;20046;-70
2023/05/10 04:37:54;;;;;;;11.90;7.80;;;12.00;99.90;;;;;;4946224;29;20044;-69
2023/05/10 04:40:20;;;;;;;8.23;6.05;;;12.10;99.90;;;;;;4947277;28;20467;-70
2023/05/10 04:42:46;;;;;;;7.55;4.75;;;12.00;99.90;;;;;;4965187;28;20118;-71
2023/05/10 04:45:12;;;;;;;8.07;5.00;;;12.00;99.90;;;;;;4965359;28;20110;-70
2023/05/10 04:47:37;;;;;;;8.55;4.45;;;12.00;99.90;;;;;;4945166;29;20487;-71
2023/05/10 04:50:04;;;;;;;5.78;4.18;;;11.90;99.90;;;;;;4963068;28;20050;-71
2023/05/10 04:52:29;;;;;;;5.40;3.63;;;12.00;99.90;;;;;;4947026;28;20078;-70
2023/05/10 04:54:55;;;;;;;4.80;3.30;;;11.90;99.90;;;;;;4948934;28;20578;-70
2023/05/10 04:57:21;;;;;;;6.35;3.60;;;11.90;99.90;;;;;;4965882;28;20499;-70
2023/05/10 04:59:47;;;;;;;7.13;4.10;;;12.00;99.90;;;;;;4962694;28;20051;-71
2023/05/10 05:02:13;;;;;;;6.50;3.20;;;11.90;99.90;;;;;;4929262;29;20047;-72
2023/05/10 05:04:38;;;;;;;6.45;3.67;;;11.80;99.90;;;;;;4963949;28;20043;-70
2023/05/10 05:07:04;;;;;;;6.78;3.83;;;11.80;99.90;;;;;;4965697;28;20395;-70
2023/05/10 05:09:31;;;;;;;8.32;4.50;;;11.90;99.90;;;;;;4948062;28;20046;-70
2023/05/10 05:11:57;;;;;;;5.57;4.13;;;11.90;99.90;;;;;;4962798;28;20054;-70
2023/05/10 05:14:24;;;;;;;7.68;4.97;;;11.90;99.90;;;;;;4962348;28;20047;-70
2023/05/10 05:16:53;;;;;;;7.78;5.40;;;12.10;99.90;;;;;;4946239;28;20043;-71
2023/05/10 05:19:19;;;;;;;8.38;5.47;;;11.90;99.90;;;;;;4965553;28;20177;-71
2023/05/10 05:21:45;;;;;;;9.15;6.10;;;11.90;99.90;;;;;;4965458;28;20468;-71
2023/05/10 05:24:12;;;;;;;11.45;6.55;;;11.90;99.90;;;;;;4945153;28;20050;-71
2023/05/10 05:26:38;;;;;;;9.32;6.13;;;12.00;99.90;;;;;;4962118;28;20459;-70
2023/05/10 05:29:04;;;;;;;9.98;7.00;;;12.00;99.90;;;;;;4946077;28;20390;-70
2023/05/10 05:31:30;;;;;;;11.27;6.63;;;11.90;99.90;;;;;;4964888;28;20129;-70
2023/05/10 05:33:56;;;;;;;9.63;7.05;;;12.10;99.90;;;;;;4947107;28;20054;-71
2023/05/10 05:36:21;;;;;;;9.13;6.07;;;12.00;99.90;;;;;;4944921;28;20070;-72
2023/05/10 05:38:47;;;;;;;10.57;6.57;;;11.90;99.90;;;;;;4961867;28;20114;-71
2023/05/10 05:41:13;;;;;;;13.88;7.97;;;11.90;99.90;;;;;;4945381;28;20455;-71
2023/05/10 05:43:39;;;;;;;13.63;7.50;;;12.20;99.90;;;;;;4947617;28;20446;-71
2023/05/10 05:46:05;;;;;;;15.70;8.25;;;12.00;99.90;;;;;;4964677;28;20051;-72
2023/05/10 05:48:31;;;;;;;19.13;9.25;;;11.90;99.90;;;;;;4961966;28;20055;-71
2023/05/10 05:50:57;;;;;;;16.77;9.77;;;11.90;99.90;;;;;;4961846;28;20043;-71
2023/05/10 05:53:23;;;;;;;18.40;11.27;;;12.00;99.90;;;;;;4962084;28;20186;-72
2023/05/10 05:55:53;;;;;;;24.38;12.27;;;11.90;99.90;;;;;;4947192;28;20042;-71
2023/05/10 05:58:20;;;;;;;23.77;12.27;;;12.00;99.90;;;;;;4964746;28;20058;-71
2023/05/10 06:00:45;;;;;;;18.10;10.80;;;12.00;99.90;;;;;;4961937;28;20097;-71
2023/05/10 06:03:11;;;;;;;16.98;10.13;;;11.90;99.90;;;;;;4944165;29;20434;-71
2023/05/10 06:05:37;;;;;;;15.10;9.10;;;11.90;99.90;;;;;;4962286;28;20051;-72
2023/05/10 06:08:02;;;;;;;16.38;9.52;;;11.90;99.90;;;;;;4964489;28;20113;-71
2023/05/10 06:10:28;;;;;;;15.07;9.80;;;11.80;99.90;;;;;;4947043;28;20050;-72
2023/05/10 06:12:54;;;;;;;14.75;9.35;;;11.90;99.90;;;;;;4944798;28;20402;-71
2023/05/10 06:15:20;;;;;;;16.95;9.25;;;11.90;99.90;;;;;;4961350;28;20047;-70
2023/05/10 06:17:46;;;;;;;14.68;9.52;;;11.80;99.90;;;;;;4961245;28;20561;-72
2023/05/10 06:20:13;;;;;;;12.07;8.50;;;11.90;99.90;;;;;;4946688;28;20057;-72
2023/05/10 06:22:38;;;;;;;13.30;8.95;;;11.80;99.90;;;;;;4947095;28;20454;-72
2023/05/10 06:25:04;;;;;;;12.73;8.85;;;11.90;99.90;;;;;;4962367;28;20050;-71
2023/05/10 06:27:30;;;;;;;13.65;8.30;;;11.80;99.90;;;;;;4943767;29;20078;-72
2023/05/10 06:29:56;;;;;;;10.30;6.75;;;11.90;99.90;;;;;;4961272;28;20456;-71
2023/05/10 06:32:21;;;;;;;7.80;5.07;;;11.90;99.90;;;;;;4946576;28;20618;-72
2023/05/10 06:34:47;;;;;;;4.78;3.15;;;11.90;99.90;;;;;;4946544;28;20470;-72
2023/05/10 06:37:13;;;;;;;3.63;2.25;;;11.90;99.90;;;;;;4962678;28;20129;-73
2023/05/10 06:39:38;;;;;;;3.72;2.13;;;12.00;99.90;;;;;;4943407;29;20054;-72
2023/05/10 06:42:05;;;;;;;2.95;2.10;;;11.90;99.90;;;;;;4960795;28;20538;-73
2023/05/10 06:44:30;;;;;;;3.03;1.77;;;12.00;99.90;;;;;;4945890;28;20063;-74
2023/05/10 06:46:56;;;;;;;2.95;1.88;;;12.00;99.90;;;;;;4946610;28;20046;-72
2023/05/10 06:49:22;;;;;;;2.92;1.58;;;12.00;99.90;;;;;;4962646;28;20047;-72
2023/05/10 06:51:48;;;;;;;2.10;1.60;;;12.00;99.90;;;;;;4943330;29;20054;-74
2023/05/10 06:54:14;;;;;;;3.88;1.75;;;12.00;99.90;;;;;;4943467;29;20561;-72
2023/05/10 06:56:39;;;;;;;1.45;1.13;;;12.20;99.90;;;;;;4962774;28;20129;-72
2023/05/10 06:59:05;;;;;;;2.40;1.30;;;12.10;99.90;;;;;;4963746;28;20078;-73
2023/05/10 07:01:30;;;;;;;1.92;1.30;;;12.00;99.90;;;;;;4946063;28;20509;-70
2023/05/10 07:03:56;;;;;;;3.58;1.58;;;12.00;99.90;;;;;;4960658;28;20086;-71
2023/05/10 07:06:22;;;;;;;3.05;1.75;;;12.10;99.90;;;;;;4963393;28;20043;-72
2023/05/10 07:08:47;;;;;;;4.70;2.15;;;12.00;99.90;;;;;;4951761;28;20051;-72
2023/05/10 07:11:13;;;;;;;4.25;2.10;;;12.50;99.90;;;;;;4952891;28;20046;-72
2023/05/10 07:13:41;;;;;;;4.30;2.53;;;12.10;99.90;;;;;;4952951;28;20422;-71
2023/05/10 07:16:07;;;;;;;4.32;2.85;;;12.10;99.90;;;;;;4926116;29;20055;-74
2023/05/10 07:18:33;;;;;;;3.95;2.92;;;12.20;99.90;;;;;;4966833;28;20047;-71
2023/05/10 07:20:58;;;;;;;4.38;3.45;;;12.10;99.90;;;;;;4950954;28;20051;-72
2023/05/10 07:23:24;;;;;;;4.22;3.40;;;12.20;99.90;;;;;;4952729;28;20046;-72
2023/05/10 07:25:53;;;;;;;4.97;3.80;;;12.20;99.90;;;;;;4969912;28;20050;-73
2023/05/10 07:28:20;;;;;;;4.80;4.30;;;12.20;99.90;;;;;;4967036;28;20047;-72
2023/05/10 07:30:46;;;;;;;6.55;4.97;;;12.30;99.90;;;;;;4949549;28;20566;-72
2023/05/10 07:33:13;;;;;;;5.78;4.82;;;12.40;99.90;;;;;;4968583;28;20051;-72
2023/05/10 07:35:39;;;;;;;7.50;5.03;;;12.20;99.90;;;;;;4969688;28;20101;-74
2023/05/10 07:38:05;;;;;;;6.60;5.15;;;12.30;99.90;;;;;;4952203;28;20450;-73
2023/05/10 07:40:31;;;;;;;8.23;4.80;;;12.30;99.90;;;;;;4949166;29;20039;-72
2023/05/10 07:42:56;;;;;;;6.75;5.18;;;12.30;99.90;;;;;;4949421;28;20399;-72
2023/05/10 07:45:23;;;;;;;7.07;5.28;;;12.40;99.90;;;;;;4968152;28;20488;-74
2023/05/10 07:47:49;;;;;;;7.45;5.32;;;12.40;99.90;;;;;;4952310;28;20047;-71
2023/05/10 07:50:15;;;;;;;6.35;5.03;;;12.30;99.90;;;;;;4969614;28;20053;-72
2023/05/10 07:52:40;;;;;;;7.95;6.28;;;12.40;99.90;;;;;;4967068;28;20105;-72
2023/05/10 07:55:07;;;;;;;6.88;5.53;;;12.40;99.90;;;;;;4966878;28;20047;-72
2023/05/10 07:57:34;;;;;;;7.03;5.45;;;12.30;99.90;;;;;;4968123;28;20134;-73
2023/05/10 07:59:59;;;;;;;9.82;4.80;;;12.80;99.90;;;;;;4952201;28;20042;-72
2023/05/10 08:02:25;;;;;;;9.23;5.47;;;12.40;99.90;;;;;;4969667;28;20047;-71
2023/05/10 08:04:51;;;;;;;6.55;4.80;;;12.40;99.90;;;;;;4949118;28;20047;-73
2023/05/10 08:07:17;;;;;;;9.23;5.30;;;12.50;99.90;;;;;;4966554;28;20498;-71
2023/05/10 08:09:42;;;;;;;6.75;5.18;;;12.40;99.90;;;;;;4950415;28;20072;-71
2023/05/10 08:12:08;;;;;;;7.15;5.20;;;12.50;99.90;;;;;;4952532;28;20514;-71
2023/05/10 08:14:36;;;;;;;6.10;4.70;;;12.50;99.90;;;;;;4970087;28;20050;-72
2023/05/10 08:17:03;;;;;;;4.78;3.50;;;12.50;99.90;;;;;;4966576;28;20130;-71
2023/05/10 08:19:28;;;;;;;9.05;4.10;;;12.50;99.90;;;;;;4963529;28;20059;-71
2023/05/10 08:21:55;;;;;;;8.23;4.55;;;12.60;99.90;;;;;;4964227;28;20384;-71
2023/05/10 08:24:21;;;;;;;5.85;4.03;;;12.60;99.90;;;;;;4966695;28;20047;-74
2023/05/10 08:26:47;;;;;;;6.78;4.55;;;12.60;99.90;;;;;;4949042;28;20495;-71
2023/05/10 08:29:14;;;;;;;5.68;4.63;;;12.60;99.90;;;;;;4946394;28;20222;-71
2023/05/10 08:31:39;;;;;;;6.50;4.78;;;12.70;99.90;;;;;;4945939;29;20053;-70
2023/05/10 08:34:05;;;;;;;7.80;5.07;;;12.70;99.90;;;;;;4964244;28;20106;-71
2023/05/10 08:36:31;;;;;;;7.15;4.60;;;12.70;99.90;;;;;;4966094;28;20042;-71
2023/05/10 08:38:58;;;;;;;9.30;5.50;;;12.60;99.90;;;;;;4966075;28;20050;-72
2023/05/10 08:41:25;;;;;;;7.28;5.20;;;12.70;99.90;;;;;;4963597;28;20093;-71
2023/05/10 08:43:52;;;;;;;6.93;5.07;;;12.80;99.90;;;;;;4962955;28;20110;-71
2023/05/10 08:46:18;;;;;;;10.35;5.47;;;12.70;99.90;;;;;;4946464;28;20059;-71
2023/05/10 08:48:45;;;;;;;7.68;6.00;;;12.80;99.90;;;;;;4965993;28;20046;-71
2023/05/10 08:51:14;;;;;;;9.55;5.70;;;12.80;99.90;;;;;;4965660;28;20130;-72
2023/05/10 08:53:40;;;;;;;8.90;6.05;;;12.90;99.90;;;;;;4962999;28;20126;-72
2023/05/10 08:56:06;;;;;;;8.38;6.10;;;13.10;99.90;;;;;;4962798;28;20127;-73
2023/05/10 08:58:32;;;;;;;11.52;6.47;;;12.90;99.90;;;;;;4963968;28;20039;-73
2023/05/10 09:01:00;;;;;;;10.32;5.45;;;13.00;99.90;;;;;;4948542;28;20054;-72
2023/05/10 09:03:26;;;;;;;7.80;5.35;;;13.00;99.90;;;;;;4965731;28;20106;-73
2023/05/10 09:05:52;;;;;;;9.95;5.38;;;13.00;99.90;;;;;;4962128;28;20043;-72
2023/05/10 09:08:19;;;;;;;8.57;5.00;;;13.20;99.90;;;;;;4962811;28;20132;-71
2023/05/10 09:10:47;;;;;;;7.32;5.07;;;13.20;99.90;;;;;;4964015;28;20513;-72
2023/05/10 09:13:15;;;;;;;7.53;4.63;;;13.20;99.90;;;;;;4965679;28;20438;-71
2023/05/10 09:15:43;;;;;;;7.75;4.28;;;13.30;99.90;;;;;;4965167;28;20053;-72
2023/05/10 09:18:09;;;;;;;6.22;4.63;;;13.30;99.90;;;;;;4962428;28;20478;-71
2023/05/10 09:20:35;;;;;;;9.35;5.25;;;13.30;99.90;;;;;;4962037;28;20082;-73
2023/05/10 09:23:00;;;;;;;8.32;5.13;;;13.40;99.90;;;;;;4963987;28;20059;-71
2023/05/10 09:25:26;;;;;;;8.18;5.78;;;13.50;99.90;;;;;;4965408;28;20046;-72
2023/05/10 09:27:52;;;;;;;8.38;5.25;;;13.60;99.90;;;;;;4946825;28;20495;-71
2023/05/10 09:30:28;;;;;;;11.13;5.05;;;13.60;99.90;;;;;;4961506;28;20083;-71
2023/05/10 09:32:55;;;;;;;22.02;6.43;;;13.70;99.90;;;;;;4962167;28;20035;-72
2023/05/10 09:35:24;;;;;;;7.75;5.30;;;13.60;99.90;;;;;;4961721;28;20051;-72
2023/05/10 09:37:51;;;;;;;8.57;6.05;;;13.70;99.90;;;;;;4961898;28;20070;-72
2023/05/10 09:40:20;;;;;;;9.20;5.22;;;13.70;99.90;;;;;;4946158;28;20094;-71
2023/05/10 09:42:59;;;;;;;8.82;5.43;;;13.80;99.90;;;;;;4965112;28;20086;-71
2023/05/10 09:45:27;;;;;;;8.00;5.10;;;13.80;99.90;;;;;;4962530;28;20384;-72
2023/05/10 09:47:54;;;;;;;8.77;5.43;;;13.80;99.90;;;;;;4961773;28;20517;-72
2023/05/10 09:50:20;;;;;;;6.93;4.95;;;13.70;99.90;;;;;;4962686;28;20040;-71
2023/05/10 09:52:58;;;;;;;7.88;4.95;;;13.80;99.90;;;;;;4964852;28;20043;-71
2023/05/10 09:55:25;;;;;;;7.78;5.40;;;13.90;99.90;;;;;;4963883;28;20047;-72
2023/05/10 09:58:01;;;;;;;8.80;5.30;;;13.90;99.90;;;;;;4961679;28;20039;-72
2023/05/10 10:00:27;;;;;;;7.18;5.13;;;14.00;99.90;;;;;;4944417;28;20127;-72
2023/05/10 10:02:58;;;;;;;10.43;4.70;;;13.90;99.90;;;;;;4964652;28;20134;-72
2023/05/10 10:05:35;;;;;;;9.05;5.07;;;13.90;99.90;;;;;;4964878;28;20051;-72
2023/05/10 10:08:04;;;;;;;7.38;5.32;;;14.00;99.90;;;;;;4954318;28;20059;-72
2023/05/10 10:10:31;;;;;;;7.75;5.28;;;14.00;99.90;;;;;;4944558;29;20058;-72
2023/05/10 10:12:57;;;;;;;11.07;5.55;;;14.00;99.90;;;;;;4946865;28;20050;-72
2023/05/10 10:15:24;;;;;;;6.95;4.70;;;14.00;99.90;;;;;;4964263;28;20548;-73
2023/05/10 10:17:50;;;;;;;5.97;4.30;;;14.00;99.90;;;;;;4962791;28;20059;-72
2023/05/10 10:20:17;;;;;;;6.32;4.35;;;14.00;99.90;;;;;;4961183;28;20047;-72
2023/05/10 10:22:43;;;;;;;6.95;4.10;;;14.20;99.90;;;;;;4943942;29;20574;-72
2023/05/10 10:25:11;;;;;;;8.02;4.55;;;14.20;99.90;;;;;;4964120;28;20399;-72
2023/05/10 10:27:52;;;;;;;8.30;4.05;;;14.30;99.90;;;;;;4931116;28;20125;-72
2023/05/10 10:30:27;;;;;;;6.05;3.50;;;14.30;99.90;;;;;;4953534;28;20106;-72
2023/05/10 10:32:52;;;;;;;;;;;14.40;99.90;;;;;;4961438;28;20039;-72
2023/05/10 10:35:18;;;;;;;6.20;3.50;;;14.40;99.90;;;;;;4963599;28;19984;-71
2023/05/10 10:37:45;;;;;;;6.63;3.92;;;14.50;99.90;;;;;;4963536;28;20086;-72
2023/05/10 10:40:28;;;;;;;5.40;3.88;;;14.60;99.90;;;;;;4962188;28;20105;-71
2023/05/10 10:42:55;;;;;;;7.63;4.30;;;14.60;99.90;;;;;;4960526;28;20105;-72
2023/05/10 10:45:22;;;;;;;5.32;4.05;;;14.60;99.90;;;;;;4962446;28;20090;-71
2023/05/10 10:47:49;;;;;;;7.32;4.32;;;14.60;99.90;;;;;;4963998;28;20050;-72
2023/05/10 10:50:18;;;;;;;7.15;4.25;;;14.60;99.90;;;;;;4946315;28;20150;-72
2023/05/10 10:52:45;;;;;;;7.57;5.00;;;14.50;99.90;;;;;;4960626;28;20039;-72
2023/05/10 10:55:12;;;;;;;8.40;5.03;;;14.50;99.90;;;;;;4960485;28;20130;-72
2023/05/10 10:57:40;;;;;;;5.63;4.45;;;14.40;99.90;;;;;;4963186;28;20102;-72
2023/05/10 11:00:27;;;;;;;6.68;4.72;;;14.40;99.90;;;;;;4963713;28;20055;-71
2023/05/10 11:02:57;;;;;;;9.40;5.78;;;14.40;99.90;;;;;;4953085;28;20114;-71
2023/05/10 11:05:36;;;;;;;7.10;5.28;;;14.40;99.90;;;;;;4960276;28;20410;-71
2023/05/10 11:08:17;;;;;;;9.05;4.97;;;14.40;99.90;;;;;;4953761;28;20039;-72
2023/05/10 11:10:51;;;;;;;8.00;4.85;;;14.50;99.90;;;;;;4961788;28;20531;-71
2023/05/10 11:13:34;;;;;;;10.32;5.13;;;14.50;99.90;;;;;;4963689;28;20094;-71
2023/05/10 11:16:24;;;;;;;7.38;5.43;;;14.50;99.90;;;;;;4960447;28;20058;-72
2023/05/10 11:19:12;;;;;;;10.30;5.63;;;14.40;99.90;;;;;;4901953;29;20064;-71
2023/05/10 11:22:11;;;;;;;9.63;5.38;;;14.40;99.90;;;;;;4904025;29;20143;-72
2023/05/10 11:24:37;;;;;;;11.80;6.68;;;14.40;99.90;;;;;;4885323;29;20569;-72
2023/05/10 11:27:02;;;;;;;11.30;6.20;;;14.40;99.90;;;;;;4902874;29;20152;-72
2023/05/10 11:29:28;;;;;;;10.73;7.18;;;14.40;99.90;;;;;;4904109;29;20095;-72
2023/05/10 11:31:57;;;;;;;9.27;6.38;;;14.50;99.90;;;;;;4904115;29;20126;-72
2023/05/10 11:34:29;;;;;;;12.85;7.57;;;14.50;99.90;;;;;;4885209;29;20045;-72
2023/05/10 11:36:56;;;;;;;12.05;7.40;;;14.50;99.90;;;;;;4900919;29;20452;-72
2023/05/10 11:39:25;;;;;;;11.27;7.35;;;14.50;99.90;;;;;;4903018;29;20051;-71
2023/05/10 11:41:51;;;;;;;10.88;7.45;;;14.50;99.90;;;;;;4904144;29;20062;-71
2023/05/10 11:44:16;;;;;;;12.98;7.85;;;14.50;99.90;;;;;;4902785;29;20511;-71
2023/05/10 11:46:42;;;;;;;11.60;6.85;;;14.60;99.90;;;;;;4900764;29;20490;-72
2023/05/10 11:49:08;;;;;;;9.30;6.40;;;14.60;99.90;;;;;;4885233;29;20057;-72
2023/05/10 11:51:39;;;;;;;10.90;6.78;;;14.50;99.90;;;;;;4903285;29;20048;-71
2023/05/10 11:54:09;;;;;;;8.20;5.80;;;14.50;99.90;;;;;;4891140;29;20055;-71
2023/05/10 11:56:35;;;;;;;13.27;6.07;;;14.70;99.90;;;;;;4921383;29;20059;-72
2023/05/10 11:59:02;;;;;;;9.57;6.30;;;14.70;99.90;;;;;;4945053;29;20052;-71
2023/05/10 12:01:28;;;;;;;9.10;5.63;;;14.70;99.90;;;;;;4945319;29;20043;-72
2023/05/10 12:03:58;;;;;;;10.95;5.90;;;14.80;99.90;;;;;;4947823;29;20051;-72
2023/05/10 12:06:28;;;;;;;9.10;5.97;;;14.90;99.90;;;;;;4947650;29;20866;-72
2023/05/10 12:08:54;;;;;;;10.10;5.93;;;14.90;99.90;;;;;;4944855;29;20399;-71
2023/05/10 12:11:24;;;;;;;9.70;5.85;;;14.80;99.90;;;;;;4944361;29;20052;-71
2023/05/10 12:13:50;;;;;;;9.90;5.32;;;14.90;99.90;;;;;;4946023;29;20395;-72
2023/05/10 12:16:17;;;;;;;9.90;6.28;;;14.80;99.90;;;;;;4930217;29;20106;-72
2023/05/10 12:18:44;;;;;;;10.55;6.50;;;14.90;99.90;;;;;;4947136;29;20043;-72
2023/05/10 12:21:15;;;;;;;9.80;6.30;;;14.90;99.90;;;;;;4944245;29;20040;-72
2023/05/10 12:23:41;;;;;;;7.53;5.38;;;14.80;99.90;;;;;;4944664;29;20050;-72
2023/05/10 12:26:12;;;;;;;9.88;5.20;;;14.70;99.90;;;;;;4929443;29;20051;-71
2023/05/10 12:28:41;;;;;;;8.15;5.18;;;14.80;99.90;;;;;;4947484;29;20039;-72
2023/05/10 12:31:08;;;;;;;12.05;5.28;;;14.70;99.90;;;;;;4945546;29;20087;-72
2023/05/10 12:33:45;;;;;;;8.88;5.95;;;14.80;99.90;;;;;;4944135;29;20047;-72
2023/05/10 12:36:13;;;;;;;9.68;5.82;;;14.80;99.90;;;;;;4945767;29;20122;-72
2023/05/10 12:38:42;;;;;;;8.55;5.38;;;14.90;99.90;;;;;;4947098;29;20562;-72
2023/05/10 12:41:10;;;;;;;8.50;5.75;;;14.90;99.90;;;;;;4946283;29;20049;-72
2023/05/10 12:43:36;;;;;;;8.65;6.25;;;15.00;99.90;;;;;;4943988;29;20036;-72
2023/05/10 12:46:13;;;;;;;7.78;5.38;;;15.10;99.90;;;;;;4952318;28;20062;-71